Time;durP1;ratioP1;P1;durP2;ratioP2;P2;SDS_P1;SDS_P2;PMS_P1;PMS_P2;Temp;Humidity;BMP_temperature;BMP_pressure;BME280_temperature;BME280_humidity;BME280_pressure;Samples;Min_cycle;Max_cycle;Signal;HPM_P1;HPM_P2
2022/04/21 00:00:34;;;;;;;12.43;9.00;;;;;;;7.92;100.00;162636.72;5031128;28;20288;-56
2022/04/21 00:03:00;;;;;;;7.60;6.13;;;;;;;7.88;100.00;162625.91;5031277;28;20447;-58
2022/04/21 00:05:25;;;;;;;9.10;7.07;;;;;;;7.88;100.00;162624.59;5032656;28;20017;-58
2022/04/21 00:07:51;;;;;;;10.05;7.43;;;;;;;7.79;100.00;162601.66;5030832;28;20048;-56
2022/04/21 00:10:17;;;;;;;7.30;6.43;;;;;;;7.83;100.00;162611.06;5032489;28;20022;-57
2022/04/21 00:12:43;;;;;;;8.85;7.38;;;;;;;7.80;100.00;162604.34;5030844;28;20037;-58
2022/04/21 00:15:09;;;;;;;9.65;8.15;;;;;;;7.80;100.00;162603.03;5032262;28;20036;-58
2022/04/21 00:17:34;;;;;;;16.50;8.00;;;;;;;7.73;100.00;162586.88;5030850;28;20037;-58
2022/04/21 00:20:00;;;;;;;13.90;8.27;;;;;;;7.66;100.00;162568.00;5032463;28;20042;-57
2022/04/21 00:25:10;;;;;;;9.00;6.97;;;;;;;7.59;100.00;162550.47;5013078;28;20531;-58
2022/04/21 00:27:39;;;;;;;10.60;7.47;;;;;;;7.56;100.00;162541.03;5010702;28;20037;-57
2022/04/21 00:30:06;;;;;;;10.50;6.95;;;;;;;7.52;100.00;162530.28;5012223;28;20112;-58
2022/04/21 00:32:33;;;;;;;10.80;6.55;;;;;;;7.49;100.00;162523.50;5010787;28;20037;-58
2022/04/21 00:34:58;;;;;;;10.23;7.18;;;;;;;7.46;100.00;162515.44;5012738;28;20037;-58
2022/04/21 00:37:24;;;;;;;9.38;7.28;;;;;;;7.44;100.00;162511.44;5027962;28;20045;-58
2022/04/21 00:39:50;;;;;;;8.43;7.60;;;;;;;7.42;100.00;162504.66;5032172;28;20029;-58
2022/04/21 00:42:15;;;;;;;11.70;6.78;;;;;;;7.38;100.00;162495.22;5030715;28;20044;-58
2022/04/21 00:44:41;;;;;;;9.90;7.45;;;;;;;7.37;100.00;162491.19;5031384;28;20017;-58
2022/04/21 00:47:07;;;;;;;10.43;7.07;;;;;;;7.34;100.00;162483.09;5030464;28;20044;-58
2022/04/21 00:49:33;;;;;;;10.57;7.47;;;;;;;7.33;100.00;162480.44;5031603;28;20497;-58
2022/04/21 00:52:00;;;;;;;9.20;6.60;;;;;;;7.27;100.00;162465.63;5029893;28;20060;-58
2022/04/21 00:54:29;;;;;;;9.40;7.95;;;;;;;7.19;100.00;162445.38;5031176;28;20032;-58
2022/04/21 00:56:55;;;;;;;7.20;6.38;;;;;;;7.19;100.00;162445.38;5029725;28;20646;-58
2022/04/21 00:59:20;;;;;;;11.70;7.90;;;;;;;7.14;100.00;162431.94;5030572;28;20025;-58
2022/04/21 01:04:30;;;;;;;8.52;6.50;;;;;;;7.09;100.00;162418.47;5030810;28;20053;-58
2022/04/21 01:06:55;;;;;;;15.50;7.90;;;;;;;7.12;100.00;162426.53;5029377;28;20045;-58
2022/04/21 01:09:21;;;;;;;10.70;8.20;;;;;;;7.08;100.00;162415.78;5030634;28;20036;-58
2022/04/21 01:11:50;;;;;;;8.20;7.35;;;;;;;7.03;100.00;162402.31;5029285;28;20068;-57
2022/04/21 01:14:16;;;;;;;8.10;7.30;;;;;;;6.98;100.00;162391.53;5030732;28;20067;-58
2022/04/21 01:16:42;;;;;;;10.07;7.70;;;;;;;6.91;100.00;162371.34;5029035;28;20048;-58
2022/04/21 01:19:07;;;;;;;9.98;6.50;;;;;;;6.92;100.00;162375.38;5030575;28;20033;-58
2022/04/21 01:21:33;;;;;;;7.90;7.07;;;;;;;6.86;100.00;162357.84;5028898;28;20069;-58
2022/04/21 01:23:58;;;;;;;10.20;7.15;;;;;;;6.79;100.00;162340.38;5030774;28;20392;-58
2022/04/21 01:26:28;;;;;;;7.63;6.68;;;;;;;6.72;100.00;162321.53;5028994;28;20038;-58
2022/04/21 01:28:54;;;;;;;8.45;7.32;;;;;;;6.64;100.00;162302.69;5030616;28;20040;-58
2022/04/21 01:31:23;;;;;;;9.73;7.45;;;;;;;6.56;100.00;162279.75;5028625;28;20500;-58
2022/04/21 01:33:49;;;;;;;9.05;7.20;;;;;;;6.53;100.00;162271.72;5030585;28;20065;-58
2022/04/21 01:36:14;;;;;;;8.52;7.70;;;;;;;6.49;100.00;162262.28;5028616;28;20408;-58
2022/04/21 01:41:24;;;;;;;10.00;8.18;;;;;;;6.48;100.00;162259.59;5029192;28;20237;-58
2022/04/21 01:43:49;;;;;;;10.25;7.57;;;;;;;6.49;100.00;162262.28;5030170;28;20025;-57
2022/04/21 01:46:14;;;;;;;15.77;7.30;;;;;;;6.50;100.00;162264.97;5029024;28;20033;-57
2022/04/21 01:48:40;;;;;;;7.38;6.43;;;;;;;6.50;100.00;162264.97;5029867;28;20029;-57
2022/04/21 01:51:06;;;;;;;7.57;6.70;;;;;;;6.49;100.00;162262.28;5029077;28;20034;-58
2022/04/21 01:53:31;;;;;;;10.52;6.97;;;;;;;6.50;100.00;162264.97;5030351;28;20025;-57
2022/04/21 01:55:57;;;;;;;8.05;6.50;;;;;;;6.50;100.00;162266.31;5029197;28;20037;-57
2022/04/21 01:58:23;;;;;;;7.82;7.10;;;;;;;6.53;100.00;162273.03;5029806;28;20033;-57
2022/04/21 02:00:48;;;;;;;8.25;6.82;;;;;;;6.55;100.00;162278.44;5028813;28;20057;-57
2022/04/21 02:03:13;;;;;;;7.32;6.18;;;;;;;6.57;100.00;162282.44;5030107;28;20029;-57
2022/04/21 02:05:39;;;;;;;9.80;7.72;;;;;;;6.56;100.00;162281.13;5028292;28;20029;-57
2022/04/21 02:08:04;;;;;;;7.72;6.53;;;;;;;6.55;100.00;162278.44;5030207;28;20086;-57
2022/04/21 02:10:30;;;;;;;9.18;5.97;;;;;;;6.55;100.00;162277.09;5030456;28;20022;-57
2022/04/21 02:12:56;;;;;;;10.65;7.25;;;;;;;6.57;100.00;162283.81;5028509;28;20045;-58
2022/04/21 02:15:23;;;;;;;9.30;5.97;;;;;;;6.63;100.00;162299.97;5029692;28;20032;-58
2022/04/21 02:17:48;;;;;;;7.43;6.57;;;;;;;6.62;100.00;162297.28;5028728;28;20112;-57
2022/04/21 02:20:15;;;;;;;11.00;7.10;;;;;;;6.59;100.00;162289.19;5029805;28;20033;-57
2022/04/21 02:22:41;;;;;;;10.38;7.30;;;;;;;6.52;100.00;162270.31;5028921;28;20459;-57
2022/04/21 02:25:08;;;;;;;9.98;7.35;;;;;;;6.51;100.00;162267.69;5034100;28;20025;-57
2022/04/21 02:27:35;;;;;;;8.15;6.45;;;;;;;6.47;100.00;162256.88;5031519;28;20365;-58
2022/04/21 02:30:00;;;;;;;8.35;7.30;;;;;;;6.43;100.00;162246.13;5033909;28;20025;-57
2022/04/21 02:32:26;;;;;;;7.20;6.50;;;;;;;6.39;100.00;162235.34;5032272;28;20045;-58
2022/04/21 02:34:53;;;;;;;8.07;6.35;;;;;;;6.38;100.00;162232.63;5033620;28;20426;-57
2022/04/21 02:37:20;;;;;;;11.88;7.30;;;;;;;6.34;100.00;162224.59;5032152;28;20045;-58
2022/04/21 02:39:45;;;;;;;10.35;7.53;;;;;;;6.32;100.00;162217.88;5034016;28;20030;-57
2022/04/21 02:42:11;;;;;;;8.02;7.25;;;;;;;6.30;100.00;162213.78;5031941;28;20045;-57
2022/04/21 02:44:38;;;;;;;9.05;6.22;;;;;;;6.24;100.00;162196.31;5033432;28;20108;-58
2022/04/21 02:47:05;;;;;;;8.82;7.20;;;;;;;6.30;100.00;162213.78;5032588;28;20046;-57
2022/04/21 02:49:32;;;;;;;9.68;7.13;;;;;;;6.30;100.00;162213.78;5033478;28;20422;-57
2022/04/21 02:51:57;;;;;;;8.32;5.72;;;;;;;6.26;100.00;162203.06;5032258;28;20041;-58
2022/04/21 02:57:22;;;;;;;8.70;6.70;;;;;;;6.22;100.00;162192.25;5031938;28;20044;-57
2022/04/21 02:59:52;;;;;;;7.07;6.40;;;;;;;6.19;100.00;162184.22;5033049;28;20025;-56
2022/04/21 03:02:19;;;;;;;7.47;6.22;;;;;;;6.20;100.00;162186.91;5031986;28;20069;-58
2022/04/21 03:04:45;;;;;;;10.60;6.53;;;;;;;6.09;100.00;162157.28;5033100;28;20025;-57
2022/04/21 03:07:10;;;;;;;7.00;6.18;;;;;;;6.11;100.00;162162.66;5032074;28;20041;-57
2022/04/21 03:09:36;;;;;;;6.15;5.40;;;;;;;6.11;100.00;162162.66;5032774;28;20028;-58
2022/04/21 03:12:03;;;;;;;7.43;6.45;;;;;;;6.07;100.00;162151.94;5031301;28;20038;-58
2022/04/21 03:14:28;;;;;;;8.70;6.75;;;;;;;6.10;100.00;162161.34;5033183;28;20576;-58
2022/04/21 03:16:53;;;;;;;6.95;6.35;;;;;;;6.12;100.00;162166.69;5032097;28;20053;-58
2022/04/21 03:19:19;;;;;;;9.25;6.15;;;;;;;6.15;100.00;162173.41;5032418;28;20021;-58
2022/04/21 03:24:29;;;;;;;9.35;5.43;;;;;;;6.15;100.00;162173.41;5032954;28;20516;-58
2022/04/21 03:26:55;;;;;;;5.97;5.43;;;;;;;6.11;100.00;162164.00;5031011;28;20069;-57
2022/04/21 03:29:21;;;;;;;7.55;6.28;;;;;;;6.10;100.00;162159.97;5032128;28;20473;-57
2022/04/21 03:31:48;;;;;;;6.88;6.05;;;;;;;6.10;100.00;162159.97;5031639;28;20056;-56
2022/04/21 03:34:16;;;;;;;8.05;6.45;;;;;;;6.12;100.00;162165.38;5032259;28;20025;-57
2022/04/21 03:36:48;;;;;;;7.60;6.30;;;;;;;6.14;100.00;162170.75;5031235;28;20034;-57
2022/04/21 03:39:19;;;;;;;7.88;6.15;;;;;;;6.17;100.00;162178.81;5033037;28;20384;-57
2022/04/21 03:41:44;;;;;;;10.48;6.50;;;;;;;6.15;100.00;162173.41;5031244;28;20041;-58
2022/04/21 03:44:11;;;;;;;8.85;8.02;;;;;;;6.15;100.00;162173.41;5032105;28;20029;-57
2022/04/21 03:46:37;;;;;;;9.23;6.10;;;;;;;6.16;100.00;162177.50;5030960;28;20052;-57
2022/04/21 03:49:03;;;;;;;6.85;6.15;;;;;;;6.18;100.00;162181.50;5032262;28;20014;-58
2022/04/21 03:51:29;;;;;;;8.50;5.70;;;;;;;6.15;100.00;162173.41;5031043;28;20433;-57
2022/04/21 03:53:54;;;;;;;7.32;6.28;;;;;;;6.10;100.00;162159.97;5032705;28;20033;-57
2022/04/21 03:56:21;;;;;;;15.05;7.20;;;;;;;6.06;100.00;162149.22;5031821;28;20543;-57
2022/04/21 03:58:46;;;;;;;7.15;6.47;;;;;;;6.02;100.00;162139.81;5030882;28;20037;-57
2022/04/21 04:01:11;;;;;;;10.35;6.43;;;;;;;5.98;100.00;162130.34;5032156;28;20129;-57
2022/04/21 04:03:37;;;;;;;11.88;6.68;;;;;;;5.94;100.00;162119.53;5030277;28;20197;-58
2022/04/21 04:06:02;;;;;;;7.47;6.68;;;;;;;5.92;100.00;162112.81;5032605;28;20021;-58
2022/04/21 04:11:11;;;;;;;6.65;6.05;;;;;;;5.86;100.00;162098.00;5031316;28;20112;-57
2022/04/21 04:13:37;;;;;;;6.75;6.07;;;;;;;5.77;100.00;162075.16;5029927;28;20802;-53
2022/04/21 04:16:02;;;;;;;9.43;8.43;;;;;;;5.80;100.00;162081.88;5027709;28;20613;-54
2022/04/21 04:18:29;;;;;;;11.10;7.43;;;;;;;5.76;100.00;162071.13;5028268;28;20037;-54
2022/04/21 04:20:54;;;;;;;10.68;6.38;;;;;;;5.70;100.00;162057.63;5031004;28;20075;-54
2022/04/21 04:23:21;;;;;;;7.43;6.75;;;;;;;5.62;100.00;162036.09;5029930;28;20496;-54
2022/04/21 04:25:47;;;;;;;11.15;6.72;;;;;;;5.63;100.00;162038.81;5029859;28;20025;-54
2022/04/21 04:28:13;;;;;;;9.60;6.63;;;;;;;5.59;100.00;162028.06;5028551;28;20064;-54
2022/04/21 04:30:38;;;;;;;8.40;6.65;;;;;;;5.58;100.00;162025.38;5020613;28;20120;-53
2022/04/21 04:33:05;;;;;;;8.45;6.78;;;;;;;5.59;100.00;162028.06;5028068;28;20144;-53
2022/04/21 04:35:31;;;;;;;7.90;6.95;;;;;;;5.63;100.00;162037.47;5029936;28;20056;-53
2022/04/21 04:37:57;;;;;;;18.80;8.07;;;;;;;5.64;100.00;162041.50;5028679;28;20042;-53
2022/04/21 04:40:22;;;;;;;7.45;6.43;;;;;;;5.69;100.00;162055.00;5029989;28;20035;-53
2022/04/21 04:42:48;;;;;;;7.72;6.72;;;;;;;5.71;100.00;162059.00;5029836;28;20045;-54
2022/04/21 04:47:57;;;;;;;7.05;6.35;;;;;;;5.75;100.00;162068.44;5029412;28;20052;-54
2022/04/21 04:50:22;;;;;;;6.90;6.00;;;;;;;5.77;100.00;162073.81;5029694;28;20029;-54
2022/04/21 04:52:48;;;;;;;6.85;6.25;;;;;;;5.78;100.00;162076.47;5029643;28;20050;-54
2022/04/21 04:55:14;;;;;;;10.52;7.20;;;;;;;5.77;100.00;162075.16;5030950;28;20022;-54
2022/04/21 04:57:39;;;;;;;8.90;6.88;;;;;;;5.80;100.00;162081.88;5029211;28;20061;-54
2022/04/21 05:00:09;;;;;;;10.43;7.43;;;;;;;5.85;100.00;162095.31;5030684;28;20049;-54
2022/04/21 05:02:35;;;;;;;7.47;6.70;;;;;;;5.88;100.00;162103.41;5028902;28;20049;-54
2022/04/21 05:05:01;;;;;;;7.10;6.50;;;;;;;5.91;100.00;162111.50;5031235;28;20029;-54
2022/04/21 05:07:26;;;;;;;7.82;7.05;;;;;;;5.95;100.00;162120.91;5015887;28;20095;-53
2022/04/21 05:09:52;;;;;;;8.52;6.68;;;;;;;5.98;100.00;162130.34;5011029;28;20128;-53
2022/04/21 05:12:18;;;;;;;10.38;7.32;;;;;;;6.02;100.00;162141.13;5012565;28;20041;-54
2022/04/21 05:14:44;;;;;;;7.70;6.90;;;;;;;6.08;100.00;162154.56;5020687;28;20021;-54
2022/04/21 05:17:09;;;;;;;8.98;7.80;;;;;;;6.13;100.00;162168.06;5018731;28;20177;-54
2022/04/21 05:19:35;;;;;;;10.00;6.78;;;;;;;6.16;100.00;162176.13;5021374;28;20377;-54
2022/04/21 05:22:02;;;;;;;9.75;7.20;;;;;;;6.19;100.00;162185.53;5018594;28;20061;-54
2022/04/21 05:24:30;;;;;;;13.10;5.80;;;;;;;6.25;100.00;162200.34;5019992;28;20024;-54
2022/04/21 05:26:55;;;;;;;8.52;6.57;;;;;;;6.34;100.00;162223.22;5020274;28;20120;-54
2022/04/21 05:32:06;;;;;;;9.15;7.18;;;;;;;6.50;100.00;162264.97;5019945;28;20036;-53
2022/04/21 05:34:32;;;;;;;12.18;7.55;;;;;;;6.57;100.00;162282.44;5020853;28;20400;-55
2022/04/21 05:36:59;;;;;;;8.07;6.43;;;;;;;6.64;100.00;162301.31;5018000;28;20095;-54
2022/04/21 05:39:24;;;;;;;7.28;6.57;;;;;;;6.71;100.00;162318.81;5020314;28;20029;-54
2022/04/21 05:41:52;;;;;;;7.85;7.05;;;;;;;6.73;100.00;162324.22;5019412;28;20442;-54
2022/04/21 05:44:18;;;;;;;8.70;6.57;;;;;;;6.82;100.00;162348.41;5018941;28;20441;-54
2022/04/21 05:46:44;;;;;;;7.07;6.38;;;;;;;6.96;100.00;162384.78;5018629;28;20029;-54
2022/04/21 05:49:10;;;;;;;11.43;6.93;;;;;;;7.03;100.00;162402.31;5020988;28;20048;-54
2022/04/21 05:51:36;;;;;;;7.28;6.57;;;;;;;7.07;100.00;162414.44;5017413;28;20044;-54
2022/04/21 05:54:04;;;;;;;6.57;5.97;;;;;;;7.20;100.00;162448.06;5020571;28;20021;-54
2022/04/21 05:56:30;;;;;;;8.65;6.72;;;;;;;7.28;100.00;162469.63;5018922;28;20103;-53
2022/04/21 05:58:56;;;;;;;6.70;6.00;;;;;;;7.40;100.00;162499.28;5021568;28;20072;-54
2022/04/21 06:01:21;;;;;;;8.27;6.63;;;;;;;7.50;100.00;162524.88;5024157;28;20045;-54
2022/04/21 06:03:46;;;;;;;6.72;5.65;;;;;;;7.54;100.00;162537.00;5021032;28;20037;-54
2022/04/21 06:06:12;;;;;;;12.45;6.80;;;;;;;7.73;100.00;162585.47;5028372;28;20033;-54
2022/04/21 06:08:38;;;;;;;8.60;6.53;;;;;;;7.82;100.00;162608.44;5023640;28;20224;-54
2022/04/21 06:11:04;;;;;;;7.60;6.88;;;;;;;7.92;100.00;162635.34;5024719;28;20384;-54
2022/04/21 06:13:30;;;;;;;7.03;6.28;;;;;;;8.03;100.00;162663.63;5022756;28;20400;-54
2022/04/21 06:15:56;;;;;;;7.95;6.20;;;;;;;8.09;100.00;162679.81;5023177;28;20101;-54
2022/04/21 06:18:23;;;;;;;7.43;5.80;;;;;;;8.17;100.00;162701.38;5022595;28;20046;-54
2022/04/21 06:20:49;;;;;;;9.15;5.97;;;;;;;8.29;100.00;162731.03;5024443;28;20034;-54
2022/04/21 06:23:14;;;;;;;8.35;6.10;;;;;;;8.39;100.00;162757.97;5021337;28;20430;-54
2022/04/21 06:25:41;;;;;;;8.85;6.20;;;;;;;8.55;100.00;162801.16;5024107;28;20037;-54
2022/04/21 06:28:07;;;;;;;9.15;7.15;;;;;;;8.67;100.00;162830.84;5022296;28;20041;-54
2022/04/21 06:30:32;;;;;;;7.18;5.28;;;;;;;8.75;100.00;162851.06;5022873;28;20419;-55
2022/04/21 06:33:01;;;;;;;6.97;6.30;;;;;;;8.84;100.00;162875.34;5022908;28;20041;-54
2022/04/21 06:35:27;;;;;;;9.15;6.35;;;;;;;8.95;100.00;162903.66;5014200;28;20085;-54
2022/04/21 06:37:56;;;;;;;12.13;6.63;;;;;;;9.05;100.00;162930.59;5012882;28;20117;-53
2022/04/21 06:40:22;;;;;;;5.70;4.95;;;;;;;9.13;100.00;162950.84;5013569;28;20029;-54
2022/04/21 06:42:47;;;;;;;13.60;6.47;;;;;;;9.18;100.00;162964.31;5012830;28;20406;-54
2022/04/21 06:48:03;;;;;;;8.38;5.47;;;;;;;9.49;100.00;163046.56;5012406;28;20041;-53
2022/04/21 06:50:32;;;;;;;6.00;5.40;;;;;;;9.62;100.00;163078.97;5014062;28;20041;-54
2022/04/21 06:52:58;;;;;;;14.57;6.78;;;;;;;9.71;100.00;163103.25;5012450;28;20034;-55
2022/04/21 06:55:23;;;;;;;8.65;4.15;;;;;;;9.74;100.00;163111.34;5013523;28;20033;-53
2022/04/21 06:57:49;;;;;;;7.30;4.95;;;;;;;9.93;100.00;163159.94;5012610;28;20042;-53
2022/04/21 07:00:15;;;;;;;6.22;5.18;;;;;;;10.11;100.00;163207.16;5013443;28;20050;-54
2022/04/21 07:02:42;;;;;;;6.07;5.47;;;;;;;10.44;100.00;163294.91;5030744;28;20045;-54
2022/04/21 07:05:10;;;;;;;15.55;7.07;;;;;;;10.87;100.00;163405.59;5031534;28;20021;-54
2022/04/21 07:07:36;;;;;;;9.10;4.85;;;;;;;11.56;100.00;163586.53;5031080;28;20071;-54
2022/04/21 07:10:02;;;;;;;5.95;4.50;;;;;;;12.83;100.00;163920.31;5032665;28;20465;-54
2022/04/21 07:12:29;;;;;;;5.63;3.33;;;;;;;14.16;100.00;164267.88;5030453;28;20120;-53
2022/04/21 07:14:56;;;;;;;11.10;5.78;;;;;;;15.12;100.00;164519.59;5033528;28;20083;-54
2022/04/21 07:17:21;;;;;;;4.35;3.60;;;;;;;15.96;100.00;164739.00;5031469;28;20065;-54
2022/04/21 07:19:48;;;;;;;5.00;4.15;;;;;;;15.82;100.00;164702.38;5032886;28;20029;-54
2022/04/21 07:22:13;;;;;;;4.78;4.00;;;;;;;16.30;98.66;164828.34;5031177;28;20091;-54
2022/04/21 07:24:39;;;;;;;4.97;4.07;;;;;;;16.84;90.51;164969.25;5027290;28;20430;-54
2022/04/21 07:27:04;;;;;;;5.68;3.60;;;;;;;16.93;91.07;164995.03;5020591;28;20045;-55
2022/04/21 07:29:30;;;;;;;5.55;3.13;;;;;;;17.20;84.83;165065.47;5022195;28;20022;-54
2022/04/21 07:31:56;;;;;;;5.45;3.22;;;;;;;17.65;79.65;165183.41;5018846;28;20041;-54
2022/04/21 07:34:21;;;;;;;6.38;3.35;;;;;;;17.96;77.66;165263.41;5022358;28;20022;-55
2022/04/21 07:36:47;;;;;;;3.75;3.38;;;;;;;17.87;79.01;165241.66;5020400;28;20073;-55
2022/04/21 07:39:12;;;;;;;3.58;3.20;;;;;;;17.87;76.34;165240.31;5032796;28;20488;-53
2022/04/21 07:41:37;;;;;;;5.35;3.88;;;;;;;18.64;78.18;165443.78;5031133;28;20218;-54
2022/04/21 07:44:03;;;;;;;5.78;3.58;;;;;;;18.05;70.58;165289.22;5033003;28;20083;-53
2022/04/21 07:46:28;;;;;;;5.63;2.55;;;;;;;18.00;72.30;165275.59;5030758;28;20038;-54
2022/04/21 07:51:37;;;;;;;9.68;3.97;;;;;;;17.37;70.82;165110.22;5031362;28;20939;-54
2022/04/21 07:54:03;;;;;;;9.50;3.83;;;;;;;17.31;75.70;165093.97;5032391;28;20017;-54
2022/04/21 07:56:28;;;;;;;6.15;2.53;;;;;;;17.26;71.29;165080.38;5030823;28;20033;-54
2022/04/21 07:58:54;;;;;;;6.80;3.70;;;;;;;16.69;70.65;164931.31;5032530;28;20624;-54
2022/04/21 08:01:19;;;;;;;3.15;2.85;;;;;;;16.94;71.03;164996.41;5021163;28;20046;-55
2022/04/21 08:03:44;;;;;;;4.93;2.55;;;;;;;17.36;71.38;165107.50;5020887;28;20026;-53
2022/04/21 08:06:12;;;;;;;7.43;3.33;;;;;;;17.23;72.55;165072.28;5016448;28;20292;-54
2022/04/21 08:08:40;;;;;;;6.75;3.28;;;;;;;16.83;70.41;164966.53;5011935;28;20944;-55
2022/04/21 08:11:06;;;;;;;8.15;4.40;;;;;;;17.00;71.72;165011.28;5010867;28;20516;-54
2022/04/21 08:13:31;;;;;;;3.20;2.72;;;;;;;16.90;70.53;164985.50;5012316;28;20022;-54
2022/04/21 08:15:56;;;;;;;3.35;3.05;;;;;;;16.79;70.46;164958.38;5010865;28;20069;-54
2022/04/21 08:18:22;;;;;;;10.40;5.18;;;;;;;17.04;69.89;165022.16;5011926;28;20025;-52
2022/04/21 08:20:48;;;;;;;3.55;3.10;;;;;;;16.40;73.79;164854.06;5009883;28;20025;-54
2022/04/21 08:23:14;;;;;;;3.50;3.17;;;;;;;16.33;72.62;164836.50;5012103;28;20036;-54
2022/04/21 08:33:50;;;;;;;3.85;3.55;;;;;;;17.35;81.25;165104.78;5012432;28;20088;-54
2022/04/21 08:36:16;;;;;;;4.07;3.30;;;;;;;17.20;72.07;165065.47;5010803;28;20037;-54
2022/04/21 08:38:41;;;;;;;4.40;3.00;;;;;;;17.66;70.86;165186.13;5011293;28;20038;-54
2022/04/21 08:41:09;;;;;;;3.10;2.70;;;;;;;18.13;68.67;165308.19;5010324;28;20042;-55
2022/04/21 08:43:35;;;;;;;;;;;;;;;17.33;66.56;165098.03;5011925;28;20036;-55
2022/04/21 08:46:03;;;;;;;3.20;2.88;;;;;;;17.32;67.04;165096.63;5009993;28;19918;-54
2022/04/21 08:48:28;;;;;;;8.75;4.15;;;;;;;17.54;68.72;165153.56;5011778;28;20032;-55
2022/04/21 08:50:54;;;;;;;5.40;4.90;;;;;;;17.52;68.29;165149.50;5010413;28;20030;-53
2022/04/21 08:53:23;;;;;;;2.78;2.40;;;;;;;17.44;66.24;165127.81;5011171;28;20010;-55
2022/04/21 08:55:50;;;;;;;5.82;2.72;;;;;;;17.32;65.29;165096.63;5010495;28;20037;-54
2022/04/21 08:58:15;;;;;;;3.20;2.90;;;;;;;17.23;66.31;165072.28;5015008;28;20448;-55
2022/04/21 09:00:43;;;;;;;4.88;3.00;;;;;;;16.70;68.69;164934.03;5018614;28;20121;-54
2022/04/21 09:03:11;;;;;;;4.30;3.40;;;;;;;16.23;68.97;164809.41;5021738;28;20056;-54
2022/04/21 09:05:36;;;;;;;3.53;2.70;;;;;;;16.02;68.24;164755.22;5019878;28;20026;-54
2022/04/21 09:08:02;;;;;;;3.38;2.70;;;;;;;16.29;68.94;164825.63;5018691;28;20103;-54
2022/04/21 09:10:32;;;;;;;3.47;2.38;;;;;;;16.35;67.68;164841.88;5021613;28;20018;-54
2022/04/21 09:12:59;;;;;;;6.40;2.83;;;;;;;16.32;67.89;164833.78;5018937;28;20042;-54
2022/04/21 09:15:30;;;;;;;3.30;3.00;;;;;;;16.86;69.20;164974.69;5024184;28;20468;-55
2022/04/21 09:18:01;;;;;;;5.55;3.72;;;;;;;17.07;67.75;165030.25;5019009;28;20076;-55
2022/04/21 09:20:33;;;;;;;3.08;2.75;;;;;;;17.29;68.28;165088.53;5019622;28;20026;-54
2022/04/21 09:23:00;;;;;;;5.93;2.78;;;;;;;17.98;67.74;165270.22;5018542;28;20042;-54
2022/04/21 09:25:31;;;;;;;5.03;2.13;;;;;;;17.74;67.38;165206.44;5021308;28;20307;-55
2022/04/21 09:27:57;;;;;;;2.97;2.30;;;;;;;17.63;64.17;165177.97;5018386;28;20080;-55
2022/04/21 09:30:23;;;;;;;5.05;2.88;;;;;;;18.23;63.11;165335.28;5019268;28;20049;-55
2022/04/21 09:32:55;;;;;;;3.08;2.67;;;;;;;17.92;60.65;165255.25;5019726;28;20049;-55
2022/04/21 09:35:23;;;;;;;5.25;3.53;;;;;;;16.96;60.71;165001.78;5020642;28;20385;-54
2022/04/21 09:37:49;;;;;;;7.82;3.17;;;;;;;17.05;66.89;165024.88;5023050;28;20413;-54
2022/04/21 09:40:26;;;;;;;7.25;2.47;;;;;;;17.08;63.91;165034.34;5019386;28;20513;-54
2022/04/21 09:43:02;;;;;;;9.48;2.80;;;;;;;17.42;64.00;165123.75;5021586;28;20045;-54
2022/04/21 09:48:24;;;;;;;11.00;3.08;;;;;;;17.90;59.45;165248.47;5020332;28;20041;-54
2022/04/21 09:50:53;;;;;;;7.13;2.78;;;;;;;17.93;60.37;165256.59;5007809;28;20112;-53
2022/04/21 09:53:23;;;;;;;2.58;2.28;;;;;;;17.87;61.81;165241.66;5010467;28;20017;-54
2022/04/21 09:55:50;;;;;;;4.22;3.15;;;;;;;17.64;63.00;165180.69;5009648;28;20105;-54
2022/04/21 09:58:16;;;;;;;8.57;3.10;;;;;;;17.55;66.73;165156.28;5010326;28;20469;-54
2022/04/21 10:00:42;;;;;;;8.85;3.22;;;;;;;17.34;64.05;165102.06;5020095;28;20073;-54
2022/04/21 10:03:08;;;;;;;3.67;3.38;;;;;;;17.22;63.85;165069.56;5030730;28;20021;-55
2022/04/21 10:05:39;;;;;;;4.22;2.70;;;;;;;17.22;62.07;165069.56;5029804;28;20033;-54
2022/04/21 10:08:07;;;;;;;4.38;2.90;;;;;;;17.71;65.26;165198.31;5028717;28;20050;-55
2022/04/21 10:10:34;;;;;;;8.15;3.83;;;;;;;17.35;62.07;165104.78;5029901;28;20112;-54
2022/04/21 10:13:00;;;;;;;11.68;2.63;;;;;;;17.14;60.04;165049.22;5028476;28;20072;-54
2022/04/21 10:15:27;;;;;;;6.47;2.60;;;;;;;17.04;60.05;165022.16;5029363;28;20049;-54
2022/04/21 10:17:53;;;;;;;3.63;2.65;;;;;;;17.43;63.91;165125.09;5028750;28;20037;-54
2022/04/21 10:20:26;;;;;;;4.93;2.55;;;;;;;17.39;61.46;165115.59;5029306;28;20564;-53
2022/04/21 10:22:53;;;;;;;6.47;3.13;;;;;;;17.58;62.21;165164.44;5028383;28;20084;-54
2022/04/21 10:25:19;;;;;;;5.82;3.00;;;;;;;17.44;60.30;165127.81;5025054;28;20523;-53
2022/04/21 10:27:47;;;;;;;3.22;2.92;;;;;;;17.19;62.47;165061.41;5023587;28;20053;-55
2022/04/21 10:30:15;;;;;;;4.10;3.33;;;;;;;16.84;62.68;164969.25;5019655;28;20022;-54
2022/04/21 10:32:49;;;;;;;7.18;3.42;;;;;;;17.29;65.21;165088.53;5016980;28;20045;-54
2022/04/21 10:35:18;;;;;;;6.07;2.88;;;;;;;17.73;62.53;165205.09;5028422;28;20509;-54
2022/04/21 10:37:43;;;;;;;6.65;3.28;;;;;;;17.88;62.47;165243.03;5026405;28;20065;-54
2022/04/21 10:40:10;;;;;;;7.28;4.10;;;;;;;17.11;63.06;165041.13;5028839;28;20048;-55
2022/04/21 10:42:55;;;;;;;7.13;3.92;;;;;;;16.57;62.13;164898.81;5027333;28;20124;-53
2022/04/21 10:45:31;;;;;;;7.22;5.25;;;;;;;16.58;66.75;164902.88;5032608;28;20018;-54
2022/04/21 10:48:09;;;;;;;5.68;3.33;;;;;;;16.37;66.20;164847.31;5031089;28;20519;-55
2022/04/21 10:50:37;;;;;;;5.85;3.95;;;;;;;16.75;66.75;164946.22;5033470;28;20033;-54
2022/04/21 10:58:34;;;;;;;5.00;3.50;;;;;;;17.59;62.62;165167.16;5033226;28;20483;-55
2022/04/21 11:01:10;;;;;;;9.63;4.55;;;;;;;17.22;63.72;165069.56;5031964;28;20041;-55
2022/04/21 11:03:36;;;;;;;5.43;3.17;;;;;;;18.11;68.94;165304.06;5033346;28;20119;-54
2022/04/21 11:06:05;;;;;;;11.38;5.22;;;;;;;18.52;65.64;165411.19;5031769;28;20116;-55
2022/04/21 11:08:31;;;;;;;5.93;4.80;;;;;;;18.64;61.60;165443.78;5032971;28;20490;-55
2022/04/21 11:10:56;;;;;;;7.18;3.78;;;;;;;18.86;64.89;165500.72;5031977;28;20021;-55
2022/04/21 11:13:47;;;;;;;10.25;3.85;;;;;;;17.81;64.54;165224.06;5032781;28;20033;-55
2022/04/21 11:16:41;;;;;;;6.47;5.78;;;;;;;18.63;61.27;165441.06;5031841;28;20068;-54
2022/04/21 11:19:28;;;;;;;6.07;4.25;;;;;;;19.27;61.83;165609.28;5027084;28;20036;-55
2022/04/21 11:21:54;;;;;;;8.95;3.85;;;;;;;18.90;59.67;165510.22;5031694;28;20107;-55
2022/04/21 11:24:19;;;;;;;5.65;2.90;;;;;;;18.96;61.41;165527.88;5029671;28;20025;-55
2022/04/21 11:26:56;;;;;;;5.47;2.90;;;;;;;18.97;60.69;165530.59;5031527;28;20048;-53
2022/04/21 11:29:21;;;;;;;6.18;3.50;;;;;;;18.75;60.91;165470.88;5032946;28;20009;-55
2022/04/21 11:31:48;;;;;;;3.90;3.20;;;;;;;18.69;60.04;165457.31;5031619;28;20101;-55
2022/04/21 11:34:22;;;;;;;7.47;4.30;;;;;;;18.19;58.35;165324.44;5032754;28;20353;-54
2022/04/21 11:36:47;;;;;;;4.13;3.03;;;;;;;18.26;60.02;165343.44;5031324;28;20033;-55
2022/04/21 11:39:14;;;;;;;2.45;2.10;;;;;;;18.56;60.24;165422.06;5023718;28;20428;-55
2022/04/21 11:41:44;;;;;;;5.65;2.78;;;;;;;18.67;60.87;165451.88;5029337;28;20042;-54
2022/04/21 11:44:10;;;;;;;3.78;3.30;;;;;;;18.54;59.03;165416.63;5027510;28;20025;-55
2022/04/21 11:46:39;;;;;;;7.03;4.82;;;;;;;18.43;57.81;165386.81;5016098;28;20040;-55
2022/04/21 11:49:07;;;;;;;5.90;3.60;;;;;;;18.63;60.07;165441.06;5032149;28;20519;-54
2022/04/21 11:51:32;;;;;;;6.95;3.10;;;;;;;18.30;58.03;165352.91;5030613;28;20038;-55
2022/04/21 11:54:09;;;;;;;5.50;4.32;;;;;;;18.46;59.55;165394.94;5032182;28;20030;-55
2022/04/21 11:56:36;;;;;;;6.43;2.75;;;;;;;18.20;61.07;165328.50;5030065;28;20570;-54
2022/04/21 11:59:09;;;;;;;7.45;2.05;;;;;;;18.62;63.89;165438.34;5032094;28;20083;-55
2022/04/21 12:07:09;;;;;;;7.70;2.75;;;;;;;18.74;67.04;165469.53;5024433;28;20040;-54
2022/04/21 12:09:39;;;;;;;6.40;2.33;;;;;;;18.94;70.59;165522.50;5030723;28;20017;-55
2022/04/21 12:12:05;;;;;;;4.05;3.20;;;;;;;18.93;65.83;165519.78;5023680;28;20452;-54